sensor_id;sensor_type;location;lat;lon;timestamp;P1;P2;P0
54869;PMS5003;40756;-37.950;145.008;2024-01-15T00:02:05;24;23;
54869;PMS5003;40756;-37.950;145.008;2024-01-15T00:04:36;27;27;
54869;PMS5003;40756;-37.950;145.008;2024-01-15T00:07:05;11;10;
54869;PMS5003;40756;-37.950;145.008;2024-01-15T00:09:35;15;15;
54869;PMS5003;40756;-37.950;145.008;2024-01-15T00:12:05;16;16;
54869;PMS5003;40756;-37.950;145.008;2024-01-15T00:14:35;43;43;
54869;PMS5003;40756;-37.950;145.008;2024-01-15T00:17:05;12;12;
54869;PMS5003;40756;-37.950;145.008;2024-01-15T00:19:35;22;22;
54869;PMS5003;40756;-37.950;145.008;2024-01-15T00:22:04;14;14;
54869;PMS5003;40756;-37.950;145.008;2024-01-15T00:24:33;14;14;
54869;PMS5003;40756;-37.950;145.008;2024-01-15T00:27:03;22;22;
54869;PMS5003;40756;-37.950;145.008;2024-01-15T00:29:32;26;25;
54869;PMS5003;40756;-37.950;145.008;2024-01-15T00:32:02;15;14;
54869;PMS5003;40756;-37.950;145.008;2024-01-15T00:34:32;31;31;
54869;PMS5003;40756;-37.950;145.008;2024-01-15T00:37:01;22;22;
54869;PMS5003;40756;-37.950;145.008;2024-01-15T00:39:31;11;11;
54869;PMS5003;40756;-37.950;145.008;2024-01-15T00:42:01;4;4;
54869;PMS5003;40756;-37.950;145.008;2024-01-15T00:44:33;3;3;
54869;PMS5003;40756;-37.950;145.008;2024-01-15T00:47:05;3;3;
54869;PMS5003;40756;-37.950;145.008;2024-01-15T00:49:36;3;3;
54869;PMS5003;40756;-37.950;145.008;2024-01-15T00:52:13;6;5;
54869;PMS5003;40756;-37.950;145.008;2024-01-15T00:54:43;15;14;
54869;PMS5003;40756;-37.950;145.008;2024-01-15T00:57:14;13;12;
54869;PMS5003;40756;-37.950;145.008;2024-01-15T00:59:49;44;44;
54869;PMS5003;40756;-37.950;145.008;2024-01-15T01:02:21;13;12;
54869;PMS5003;40756;-37.950;145.008;2024-01-15T01:04:52;12;12;
54869;PMS5003;40756;-37.950;145.008;2024-01-15T01:07:27;3;3;
54869;PMS5003;40756;-37.950;145.008;2024-01-15T01:09:59;3;3;
54869;PMS5003;40756;-37.950;145.008;2024-01-15T01:12:29;5;4;
54869;PMS5003;40756;-37.950;145.008;2024-01-15T01:15:02;4;4;
54869;PMS5003;40756;-37.950;145.008;2024-01-15T01:17:39;3;3;
54869;PMS5003;40756;-37.950;145.008;2024-01-15T01:20:09;3;3;
54869;PMS5003;40756;-37.950;145.008;2024-01-15T01:22:40;4;4;
54869;PMS5003;40756;-37.950;145.008;2024-01-15T01:25:10;6;5;
54869;PMS5003;40756;-37.950;145.008;2024-01-15T01:27:41;5;4;
54869;PMS5003;40756;-37.950;145.008;2024-01-15T01:30:13;3;3;
54869;PMS5003;40756;-37.950;145.008;2024-01-15T01:32:43;3;3;
54869;PMS5003;40756;-37.950;145.008;2024-01-15T01:35:13;7;6;
54869;PMS5003;40756;-37.950;145.008;2024-01-15T01:37:48;5;4;
54869;PMS5003;40756;-37.950;145.008;2024-01-15T01:40:19;3;3;
54869;PMS5003;40756;-37.950;145.008;2024-01-15T01:42:53;2;2;
54869;PMS5003;40756;-37.950;145.008;2024-01-15T01:45:23;4;3;
54869;PMS5003;40756;-37.950;145.008;2024-01-15T01:47:58;4;3;
54869;PMS5003;40756;-37.950;145.008;2024-01-15T01:50:32;3;2;
54869;PMS5003;40756;-37.950;145.008;2024-01-15T01:53:10;3;3;
54869;PMS5003;40756;-37.950;145.008;2024-01-15T01:55:43;3;2;
54869;PMS5003;40756;-37.950;145.008;2024-01-15T01:58:14;3;3;
54869;PMS5003;40756;-37.950;145.008;2024-01-15T02:00:48;3;3;
54869;PMS5003;40756;-37.950;145.008;2024-01-15T02:03:20;4;3;
54869;PMS5003;40756;-37.950;145.008;2024-01-15T02:05:51;2;2;
54869;PMS5003;40756;-37.950;145.008;2024-01-15T02:08:23;3;2;
54869;PMS5003;40756;-37.950;145.008;2024-01-15T02:10:57;2;2;
54869;PMS5003;40756;-37.950;145.008;2024-01-15T02:13:28;2;2;
54869;PMS5003;40756;-37.950;145.008;2024-01-15T02:16:00;3;3;
54869;PMS5003;40756;-37.950;145.008;2024-01-15T02:18:39;3;3;
54869;PMS5003;40756;-37.950;145.008;2024-01-15T02:21:11;1;1;
54869;PMS5003;40756;-37.950;145.008;2024-01-15T02:23:42;4;4;
54869;PMS5003;40756;-37.950;145.008;2024-01-15T02:26:13;19;19;
54869;PMS5003;40756;-37.950;145.008;2024-01-15T02:28:50;6;6;
54869;PMS5003;40756;-37.950;145.008;2024-01-15T02:31:24;16;16;
54869;PMS5003;40756;-37.950;145.008;2024-01-15T02:33:57;7;7;
54869;PMS5003;40756;-37.950;145.008;2024-01-15T02:36:27;4;4;
54869;PMS5003;40756;-37.950;145.008;2024-01-15T02:39:02;5;4;
54869;PMS5003;40756;-37.950;145.008;2024-01-15T02:41:35;3;2;
54869;PMS5003;40756;-37.950;145.008;2024-01-15T02:44:07;3;3;
54869;PMS5003;40756;-37.950;145.008;2024-01-15T02:46:37;3;3;
54869;PMS5003;40756;-37.950;145.008;2024-01-15T02:49:24;3;3;
54869;PMS5003;40756;-37.950;145.008;2024-01-15T02:51:55;3;3;
54869;PMS5003;40756;-37.950;145.008;2024-01-15T02:54:27;2;2;
54869;PMS5003;40756;-37.950;145.008;2024-01-15T02:56:58;3;3;
54869;PMS5003;40756;-37.950;145.008;2024-01-15T02:59:34;2;2;
54869;PMS5003;40756;-37.950;145.008;2024-01-15T03:02:09;2;2;
54869;PMS5003;40756;-37.950;145.008;2024-01-15T03:04:43;3;3;
54869;PMS5003;40756;-37.950;145.008;2024-01-15T03:07:17;3;2;
54869;PMS5003;40756;-37.950;145.008;2024-01-15T03:09:49;2;2;
54869;PMS5003;40756;-37.950;145.008;2024-01-15T03:12:19;1;1;
54869;PMS5003;40756;-37.950;145.008;2024-01-15T03:14:50;2;2;
54869;PMS5003;40756;-37.950;145.008;2024-01-15T03:17:20;2;2;
54869;PMS5003;40756;-37.950;145.008;2024-01-15T03:19:51;3;3;
54869;PMS5003;40756;-37.950;145.008;2024-01-15T03:22:20;2;2;
54869;PMS5003;40756;-37.950;145.008;2024-01-15T03:24:56;2;2;
54869;PMS5003;40756;-37.950;145.008;2024-01-15T03:27:27;1;1;
54869;PMS5003;40756;-37.950;145.008;2024-01-15T03:29:57;2;2;
54869;PMS5003;40756;-37.950;145.008;2024-01-15T03:32:27;1;1;
54869;PMS5003;40756;-37.950;145.008;2024-01-15T03:34:58;0;0;
54869;PMS5003;40756;-37.950;145.008;2024-01-15T03:37:28;2;2;
54869;PMS5003;40756;-37.950;145.008;2024-01-15T03:40:05;1;1;
54869;PMS5003;40756;-37.950;145.008;2024-01-15T03:42:36;3;2;
54869;PMS5003;40756;-37.950;145.008;2024-01-15T03:45:07;2;2;
54869;PMS5003;40756;-37.950;145.008;2024-01-15T03:47:38;1;1;
54869;PMS5003;40756;-37.950;145.008;2024-01-15T03:50:09;2;2;
54869;PMS5003;40756;-37.950;145.008;2024-01-15T03:52:40;2;2;
54869;PMS5003;40756;-37.950;145.008;2024-01-15T03:55:11;3;3;
54869;PMS5003;40756;-37.950;145.008;2024-01-15T03:57:41;2;1;
54869;PMS5003;40756;-37.950;145.008;2024-01-15T04:00:12;3;2;
54869;PMS5003;40756;-37.950;145.008;2024-01-15T04:02:50;1;1;
54869;PMS5003;40756;-37.950;145.008;2024-01-15T04:05:20;1;1;
54869;PMS5003;40756;-37.950;145.008;2024-01-15T04:07:54;1;1;
54869;PMS5003;40756;-37.950;145.008;2024-01-15T04:10:24;1;1;
54869;PMS5003;40756;-37.950;145.008;2024-01-15T04:12:54;1;1;
54869;PMS5003;40756;-37.950;145.008;2024-01-15T04:15:25;3;3;
54869;PMS5003;40756;-37.950;145.008;2024-01-15T04:17:56;3;2;
54869;PMS5003;40756;-37.950;145.008;2024-01-15T04:20:27;2;2;
54869;PMS5003;40756;-37.950;145.008;2024-01-15T04:22:59;1;1;
54869;PMS5003;40756;-37.950;145.008;2024-01-15T04:25:30;3;2;
54869;PMS5003;40756;-37.950;145.008;2024-01-15T04:28:03;1;1;
54869;PMS5003;40756;-37.950;145.008;2024-01-15T04:30:35;2;2;
54869;PMS5003;40756;-37.950;145.008;2024-01-15T04:33:08;1;1;
54869;PMS5003;40756;-37.950;145.008;2024-01-15T04:35:38;3;2;
54869;PMS5003;40756;-37.950;145.008;2024-01-15T04:38:09;1;1;
54869;PMS5003;40756;-37.950;145.008;2024-01-15T04:40:40;2;1;
54869;PMS5003;40756;-37.950;145.008;2024-01-15T04:43:14;2;1;
54869;PMS5003;40756;-37.950;145.008;2024-01-15T04:45:45;2;2;
54869;PMS5003;40756;-37.950;145.008;2024-01-15T04:48:15;1;1;
54869;PMS5003;40756;-37.950;145.008;2024-01-15T04:50:44;1;1;
54869;PMS5003;40756;-37.950;145.008;2024-01-15T04:53:15;3;2;
54869;PMS5003;40756;-37.950;145.008;2024-01-15T04:55:45;2;2;
54869;PMS5003;40756;-37.950;145.008;2024-01-15T04:58:15;2;2;
54869;PMS5003;40756;-37.950;145.008;2024-01-15T05:00:44;2;2;
54869;PMS5003;40756;-37.950;145.008;2024-01-15T05:03:14;2;2;
54869;PMS5003;40756;-37.950;145.008;2024-01-15T05:05:44;1;1;
54869;PMS5003;40756;-37.950;145.008;2024-01-15T05:08:13;2;1;
54869;PMS5003;40756;-37.950;145.008;2024-01-15T05:10:42;3;2;
54869;PMS5003;40756;-37.950;145.008;2024-01-15T05:13:11;2;1;
54869;PMS5003;40756;-37.950;145.008;2024-01-15T05:15:41;2;2;
54869;PMS5003;40756;-37.950;145.008;2024-01-15T05:18:10;2;2;
54869;PMS5003;40756;-37.950;145.008;2024-01-15T05:20:39;2;2;
54869;PMS5003;40756;-37.950;145.008;2024-01-15T05:23:08;2;2;
54869;PMS5003;40756;-37.950;145.008;2024-01-15T05:25:37;3;2;
54869;PMS5003;40756;-37.950;145.008;2024-01-15T05:28:06;2;2;
54869;PMS5003;40756;-37.950;145.008;2024-01-15T05:30:36;3;2;
54869;PMS5003;40756;-37.950;145.008;2024-01-15T05:33:05;1;1;
54869;PMS5003;40756;-37.950;145.008;2024-01-15T05:35:34;3;3;
54869;PMS5003;40756;-37.950;145.008;2024-01-15T05:38:03;1;1;
54869;PMS5003;40756;-37.950;145.008;2024-01-15T05:40:32;0;0;
54869;PMS5003;40756;-37.950;145.008;2024-01-15T05:43:02;2;2;
54869;PMS5003;40756;-37.950;145.008;2024-01-15T05:45:31;1;1;
54869;PMS5003;40756;-37.950;145.008;2024-01-15T05:48:03;2;2;
54869;PMS5003;40756;-37.950;145.008;2024-01-15T05:50:33;2;2;
54869;PMS5003;40756;-37.950;145.008;2024-01-15T05:53:02;1;1;
54869;PMS5003;40756;-37.950;145.008;2024-01-15T05:55:35;3;2;
54869;PMS5003;40756;-37.950;145.008;2024-01-15T05:58:04;2;2;
54869;PMS5003;40756;-37.950;145.008;2024-01-15T06:00:33;2;2;
54869;PMS5003;40756;-37.950;145.008;2024-01-15T06:03:03;2;2;
54869;PMS5003;40756;-37.950;145.008;2024-01-15T06:05:33;2;2;
54869;PMS5003;40756;-37.950;145.008;2024-01-15T06:08:02;2;2;
54869;PMS5003;40756;-37.950;145.008;2024-01-15T06:10:31;2;2;
54869;PMS5003;40756;-37.950;145.008;2024-01-15T06:13:00;3;2;
54869;PMS5003;40756;-37.950;145.008;2024-01-15T06:15:30;2;2;
54869;PMS5003;40756;-37.950;145.008;2024-01-15T06:17:59;3;3;
54869;PMS5003;40756;-37.950;145.008;2024-01-15T06:20:28;4;3;
54869;PMS5003;40756;-37.950;145.008;2024-01-15T06:22:57;4;3;
54869;PMS5003;40756;-37.950;145.008;2024-01-15T06:25:26;4;4;
54869;PMS5003;40756;-37.950;145.008;2024-01-15T06:27:56;3;3;
54869;PMS5003;40756;-37.950;145.008;2024-01-15T06:30:25;6;6;
54869;PMS5003;40756;-37.950;145.008;2024-01-15T06:32:54;2;1;
54869;PMS5003;40756;-37.950;145.008;2024-01-15T06:35:23;3;3;
54869;PMS5003;40756;-37.950;145.008;2024-01-15T06:37:53;2;2;
54869;PMS5003;40756;-37.950;145.008;2024-01-15T06:40:23;1;1;
54869;PMS5003;40756;-37.950;145.008;2024-01-15T06:42:52;2;2;
54869;PMS5003;40756;-37.950;145.008;2024-01-15T06:45:21;1;1;
54869;PMS5003;40756;-37.950;145.008;2024-01-15T06:47:50;1;1;
54869;PMS5003;40756;-37.950;145.008;2024-01-15T06:50:20;8;7;
54869;PMS5003;40756;-37.950;145.008;2024-01-15T06:52:49;3;2;
54869;PMS5003;40756;-37.950;145.008;2024-01-15T06:55:20;5;3;
54869;PMS5003;40756;-37.950;145.008;2024-01-15T06:57:50;3;2;
54869;PMS5003;40756;-37.950;145.008;2024-01-15T07:00:19;3;2;
54869;PMS5003;40756;-37.950;145.008;2024-01-15T07:02:48;1;1;
54869;PMS5003;40756;-37.950;145.008;2024-01-15T07:05:18;2;2;
54869;PMS5003;40756;-37.950;145.008;2024-01-15T07:07:48;2;1;
54869;PMS5003;40756;-37.950;145.008;2024-01-15T07:10:18;3;3;
54869;PMS5003;40756;-37.950;145.008;2024-01-15T07:12:47;2;2;
54869;PMS5003;40756;-37.950;145.008;2024-01-15T07:15:16;2;2;
54869;PMS5003;40756;-37.950;145.008;2024-01-15T07:17:46;1;1;
54869;PMS5003;40756;-37.950;145.008;2024-01-15T07:20:16;4;3;
54869;PMS5003;40756;-37.950;145.008;2024-01-15T07:22:46;4;3;
54869;PMS5003;40756;-37.950;145.008;2024-01-15T07:25:16;2;1;
54869;PMS5003;40756;-37.950;145.008;2024-01-15T07:27:45;2;2;
54869;PMS5003;40756;-37.950;145.008;2024-01-15T07:30:14;1;1;
54869;PMS5003;40756;-37.950;145.008;2024-01-15T07:32:44;2;2;
54869;PMS5003;40756;-37.950;145.008;2024-01-15T07:35:13;2;2;
54869;PMS5003;40756;-37.950;145.008;2024-01-15T07:37:43;3;2;
54869;PMS5003;40756;-37.950;145.008;2024-01-15T07:40:13;4;3;
54869;PMS5003;40756;-37.950;145.008;2024-01-15T07:42:42;3;3;
54869;PMS5003;40756;-37.950;145.008;2024-01-15T07:45:11;2;2;
54869;PMS5003;40756;-37.950;145.008;2024-01-15T07:47:41;2;2;
54869;PMS5003;40756;-37.950;145.008;2024-01-15T07:50:11;3;3;
54869;PMS5003;40756;-37.950;145.008;2024-01-15T07:52:40;2;2;
54869;PMS5003;40756;-37.950;145.008;2024-01-15T07:55:09;3;2;
54869;PMS5003;40756;-37.950;145.008;2024-01-15T07:57:38;3;3;
54869;PMS5003;40756;-37.950;145.008;2024-01-15T08:00:09;3;3;
54869;PMS5003;40756;-37.950;145.008;2024-01-15T08:02:39;3;3;
54869;PMS5003;40756;-37.950;145.008;2024-01-15T08:05:08;4;4;
54869;PMS5003;40756;-37.950;145.008;2024-01-15T08:07:37;4;3;
54869;PMS5003;40756;-37.950;145.008;2024-01-15T08:10:07;2;2;
54869;PMS5003;40756;-37.950;145.008;2024-01-15T08:12:37;2;2;
54869;PMS5003;40756;-37.950;145.008;2024-01-15T08:15:06;2;2;
54869;PMS5003;40756;-37.950;145.008;2024-01-15T08:17:35;4;4;
54869;PMS5003;40756;-37.950;145.008;2024-01-15T08:20:05;3;2;
54869;PMS5003;40756;-37.950;145.008;2024-01-15T08:22:35;4;2;
54869;PMS5003;40756;-37.950;145.008;2024-01-15T08:25:04;3;3;
54869;PMS5003;40756;-37.950;145.008;2024-01-15T08:27:34;3;3;
54869;PMS5003;40756;-37.950;145.008;2024-01-15T08:30:04;2;2;
54869;PMS5003;40756;-37.950;145.008;2024-01-15T08:32:33;4;4;
54869;PMS5003;40756;-37.950;145.008;2024-01-15T08:35:03;4;4;
54869;PMS5003;40756;-37.950;145.008;2024-01-15T08:37:33;58;56;
54869;PMS5003;40756;-37.950;145.008;2024-01-15T08:40:03;26;25;
54869;PMS5003;40756;-37.950;145.008;2024-01-15T08:42:33;7;6;
54869;PMS5003;40756;-37.950;145.008;2024-01-15T08:45:02;4;4;
54869;PMS5003;40756;-37.950;145.008;2024-01-15T08:47:32;1;1;
54869;PMS5003;40756;-37.950;145.008;2024-01-15T08:50:02;6;6;
54869;PMS5003;40756;-37.950;145.008;2024-01-15T08:52:32;4;4;
54869;PMS5003;40756;-37.950;145.008;2024-01-15T08:55:02;3;3;
54869;PMS5003;40756;-37.950;145.008;2024-01-15T08:57:31;2;2;
54869;PMS5003;40756;-37.950;145.008;2024-01-15T09:00:00;2;2;
54869;PMS5003;40756;-37.950;145.008;2024-01-15T09:02:30;0;0;
54869;PMS5003;40756;-37.950;145.008;2024-01-15T09:05:00;4;2;
54869;PMS5003;40756;-37.950;145.008;2024-01-15T09:07:29;3;3;
54869;PMS5003;40756;-37.950;145.008;2024-01-15T09:09:59;3;3;
54869;PMS5003;40756;-37.950;145.008;2024-01-15T09:12:28;9;9;
54869;PMS5003;40756;-37.950;145.008;2024-01-15T09:14:57;5;5;
54869;PMS5003;40756;-37.950;145.008;2024-01-15T09:17:26;4;4;
54869;PMS5003;40756;-37.950;145.008;2024-01-15T09:19:56;5;5;
54869;PMS5003;40756;-37.950;145.008;2024-01-15T09:22:25;8;8;
54869;PMS5003;40756;-37.950;145.008;2024-01-15T09:24:54;8;8;
54869;PMS5003;40756;-37.950;145.008;2024-01-15T09:27:24;8;7;
54869;PMS5003;40756;-37.950;145.008;2024-01-15T09:29:53;8;8;
54869;PMS5003;40756;-37.950;145.008;2024-01-15T09:32:23;3;3;
54869;PMS5003;40756;-37.950;145.008;2024-01-15T09:34:52;3;3;
54869;PMS5003;40756;-37.950;145.008;2024-01-15T09:37:21;4;4;
54869;PMS5003;40756;-37.950;145.008;2024-01-15T09:39:50;3;2;
54869;PMS5003;40756;-37.950;145.008;2024-01-15T09:42:20;3;3;
54869;PMS5003;40756;-37.950;145.008;2024-01-15T09:44:51;1;1;
54869;PMS5003;40756;-37.950;145.008;2024-01-15T09:47:22;2;2;
54869;PMS5003;40756;-37.950;145.008;2024-01-15T09:49:51;4;3;
54869;PMS5003;40756;-37.950;145.008;2024-01-15T09:52:21;3;2;
54869;PMS5003;40756;-37.950;145.008;2024-01-15T09:54:50;3;3;
54869;PMS5003;40756;-37.950;145.008;2024-01-15T09:57:21;1;1;
54869;PMS5003;40756;-37.950;145.008;2024-01-15T09:59:51;3;1;
54869;PMS5003;40756;-37.950;145.008;2024-01-15T10:02:22;1;1;
54869;PMS5003;40756;-37.950;145.008;2024-01-15T10:04:51;4;4;
54869;PMS5003;40756;-37.950;145.008;2024-01-15T10:07:21;3;2;
54869;PMS5003;40756;-37.950;145.008;2024-01-15T10:09:51;3;3;
54869;PMS5003;40756;-37.950;145.008;2024-01-15T10:12:21;2;2;
54869;PMS5003;40756;-37.950;145.008;2024-01-15T10:14:51;4;3;
54869;PMS5003;40756;-37.950;145.008;2024-01-15T10:17:20;3;3;
54869;PMS5003;40756;-37.950;145.008;2024-01-15T10:19:51;2;2;
54869;PMS5003;40756;-37.950;145.008;2024-01-15T10:22:21;3;3;
54869;PMS5003;40756;-37.950;145.008;2024-01-15T10:24:51;4;3;
54869;PMS5003;40756;-37.950;145.008;2024-01-15T10:27:20;3;2;
54869;PMS5003;40756;-37.950;145.008;2024-01-15T10:29:50;2;2;
54869;PMS5003;40756;-37.950;145.008;2024-01-15T10:32:19;3;3;
54869;PMS5003;40756;-37.950;145.008;2024-01-15T10:34:48;2;2;
54869;PMS5003;40756;-37.950;145.008;2024-01-15T10:37:23;1;0;
54869;PMS5003;40756;-37.950;145.008;2024-01-15T10:39:53;2;2;
54869;PMS5003;40756;-37.950;145.008;2024-01-15T10:42:22;5;3;
54869;PMS5003;40756;-37.950;145.008;2024-01-15T10:44:51;3;3;
54869;PMS5003;40756;-37.950;145.008;2024-01-15T10:47:21;3;3;
54869;PMS5003;40756;-37.950;145.008;2024-01-15T10:49:51;4;3;
54869;PMS5003;40756;-37.950;145.008;2024-01-15T10:52:22;1;1;
54869;PMS5003;40756;-37.950;145.008;2024-01-15T10:54:52;4;3;
54869;PMS5003;40756;-37.950;145.008;2024-01-15T10:57:22;8;7;
54869;PMS5003;40756;-37.950;145.008;2024-01-15T10:59:54;15;13;
54869;PMS5003;40756;-37.950;145.008;2024-01-15T11:02:23;17;17;
54869;PMS5003;40756;-37.950;145.008;2024-01-15T11:04:54;8;8;
54869;PMS5003;40756;-37.950;145.008;2024-01-15T11:07:24;16;16;
54869;PMS5003;40756;-37.950;145.008;2024-01-15T11:09:53;19;19;
54869;PMS5003;40756;-37.950;145.008;2024-01-15T11:12:22;16;16;
54869;PMS5003;40756;-37.950;145.008;2024-01-15T11:14:52;21;20;
54869;PMS5003;40756;-37.950;145.008;2024-01-15T11:17:31;22;21;
54869;PMS5003;40756;-37.950;145.008;2024-01-15T11:20:27;21;21;
54869;PMS5003;40756;-37.950;145.008;2024-01-15T11:22:57;19;19;
54869;PMS5003;40756;-37.950;145.008;2024-01-15T11:25:34;15;15;
54869;PMS5003;40756;-37.950;145.008;2024-01-15T11:28:05;8;8;
54869;PMS5003;40756;-37.950;145.008;2024-01-15T11:30:35;20;20;
54869;PMS5003;40756;-37.950;145.008;2024-01-15T11:33:04;14;12;
54869;PMS5003;40756;-37.950;145.008;2024-01-15T11:35:50;6;6;
54869;PMS5003;40756;-37.950;145.008;2024-01-15T11:38:27;4;3;
54869;PMS5003;40756;-37.950;145.008;2024-01-15T11:40:57;5;4;
54869;PMS5003;40756;-37.950;145.008;2024-01-15T11:43:28;7;6;
54869;PMS5003;40756;-37.950;145.008;2024-01-15T11:45:58;4;4;
54869;PMS5003;40756;-37.950;145.008;2024-01-15T11:48:32;2;1;
54869;PMS5003;40756;-37.950;145.008;2024-01-15T11:51:11;4;4;
54869;PMS5003;40756;-37.950;145.008;2024-01-15T11:53:45;3;3;
54869;PMS5003;40756;-37.950;145.008;2024-01-15T11:56:20;4;4;
54869;PMS5003;40756;-37.950;145.008;2024-01-15T11:58:52;3;3;
54869;PMS5003;40756;-37.950;145.008;2024-01-15T12:01:21;3;3;
54869;PMS5003;40756;-37.950;145.008;2024-01-15T12:03:50;2;2;
54869;PMS5003;40756;-37.950;145.008;2024-01-15T12:06:21;4;3;
54869;PMS5003;40756;-37.950;145.008;2024-01-15T12:08:51;6;4;
54869;PMS5003;40756;-37.950;145.008;2024-01-15T12:11:34;7;5;
54869;PMS5003;40756;-37.950;145.008;2024-01-15T12:14:07;1;1;
54869;PMS5003;40756;-37.950;145.008;2024-01-15T12:16:37;4;4;
54869;PMS5003;40756;-37.950;145.008;2024-01-15T12:19:06;3;3;
54869;PMS5003;40756;-37.950;145.008;2024-01-15T12:21:39;4;4;
54869;PMS5003;40756;-37.950;145.008;2024-01-15T12:24:12;5;4;
54869;PMS5003;40756;-37.950;145.008;2024-01-15T12:26:44;3;3;
54869;PMS5003;40756;-37.950;145.008;2024-01-15T12:29:13;3;2;
54869;PMS5003;40756;-37.950;145.008;2024-01-15T12:31:47;3;3;
54869;PMS5003;40756;-37.950;145.008;2024-01-15T12:34:17;2;2;
54869;PMS5003;40756;-37.950;145.008;2024-01-15T12:36:47;4;4;
54869;PMS5003;40756;-37.950;145.008;2024-01-15T12:39:17;4;4;
54869;PMS5003;40756;-37.950;145.008;2024-01-15T12:41:48;2;2;
54869;PMS5003;40756;-37.950;145.008;2024-01-15T12:44:18;3;3;
54869;PMS5003;40756;-37.950;145.008;2024-01-15T12:46:48;2;1;
54869;PMS5003;40756;-37.950;145.008;2024-01-15T12:49:18;2;2;
54869;PMS5003;40756;-37.950;145.008;2024-01-15T12:51:52;5;5;
54869;PMS5003;40756;-37.950;145.008;2024-01-15T12:54:24;6;4;
54869;PMS5003;40756;-37.950;145.008;2024-01-15T12:56:54;2;2;
54869;PMS5003;40756;-37.950;145.008;2024-01-15T12:59:24;5;4;
54869;PMS5003;40756;-37.950;145.008;2024-01-15T13:01:54;5;2;
54869;PMS5003;40756;-37.950;145.008;2024-01-15T13:04:24;5;5;
54869;PMS5003;40756;-37.950;145.008;2024-01-15T13:06:54;5;4;
54869;PMS5003;40756;-37.950;145.008;2024-01-15T13:09:24;2;2;
54869;PMS5003;40756;-37.950;145.008;2024-01-15T13:11:53;6;4;
54869;PMS5003;40756;-37.950;145.008;2024-01-15T13:14:23;5;3;
54869;PMS5003;40756;-37.950;145.008;2024-01-15T13:16:52;4;4;
54869;PMS5003;40756;-37.950;145.008;2024-01-15T13:19:22;4;4;
54869;PMS5003;40756;-37.950;145.008;2024-01-15T13:21:51;4;4;
54869;PMS5003;40756;-37.950;145.008;2024-01-15T13:24:21;5;4;
54869;PMS5003;40756;-37.950;145.008;2024-01-15T13:26:51;6;5;
54869;PMS5003;40756;-37.950;145.008;2024-01-15T13:29:20;2;2;
54869;PMS5003;40756;-37.950;145.008;2024-01-15T13:31:50;5;4;
54869;PMS5003;40756;-37.950;145.008;2024-01-15T13:34:20;6;5;
54869;PMS5003;40756;-37.950;145.008;2024-01-15T13:36:49;5;5;
54869;PMS5003;40756;-37.950;145.008;2024-01-15T13:39:18;2;2;
54869;PMS5003;40756;-37.950;145.008;2024-01-15T13:41:48;4;4;
54869;PMS5003;40756;-37.950;145.008;2024-01-15T13:44:17;4;4;
54869;PMS5003;40756;-37.950;145.008;2024-01-15T13:46:47;4;3;
54869;PMS5003;40756;-37.950;145.008;2024-01-15T13:49:16;2;2;
54869;PMS5003;40756;-37.950;145.008;2024-01-15T13:51:46;3;3;
54869;PMS5003;40756;-37.950;145.008;2024-01-15T13:54:15;6;5;
54869;PMS5003;40756;-37.950;145.008;2024-01-15T13:56:45;5;4;
54869;PMS5003;40756;-37.950;145.008;2024-01-15T13:59:14;4;3;
54869;PMS5003;40756;-37.950;145.008;2024-01-15T14:01:43;5;5;
54869;PMS5003;40756;-37.950;145.008;2024-01-15T14:04:13;4;4;
54869;PMS5003;40756;-37.950;145.008;2024-01-15T14:06:47;3;3;
54869;PMS5003;40756;-37.950;145.008;2024-01-15T14:09:18;3;2;
54869;PMS5003;40756;-37.950;145.008;2024-01-15T14:11:48;3;3;
54869;PMS5003;40756;-37.950;145.008;2024-01-15T14:14:17;3;3;
54869;PMS5003;40756;-37.950;145.008;2024-01-15T14:16:47;2;2;
54869;PMS5003;40756;-37.950;145.008;2024-01-15T14:19:17;1;1;
54869;PMS5003;40756;-37.950;145.008;2024-01-15T14:21:46;2;2;
54869;PMS5003;40756;-37.950;145.008;2024-01-15T14:24:16;2;2;
54869;PMS5003;40756;-37.950;145.008;2024-01-15T14:26:45;2;2;
54869;PMS5003;40756;-37.950;145.008;2024-01-15T14:29:15;1;1;
54869;PMS5003;40756;-37.950;145.008;2024-01-15T14:31:44;2;2;
54869;PMS5003;40756;-37.950;145.008;2024-01-15T14:34:14;3;3;
54869;PMS5003;40756;-37.950;145.008;2024-01-15T14:36:44;1;1;
54869;PMS5003;40756;-37.950;145.008;2024-01-15T14:39:13;2;2;
54869;PMS5003;40756;-37.950;145.008;2024-01-15T14:41:43;2;2;
54869;PMS5003;40756;-37.950;145.008;2024-01-15T14:44:13;2;2;
54869;PMS5003;40756;-37.950;145.008;2024-01-15T14:46:42;4;4;
54869;PMS5003;40756;-37.950;145.008;2024-01-15T14:49:12;2;2;
54869;PMS5003;40756;-37.950;145.008;2024-01-15T14:51:41;2;2;
54869;PMS5003;40756;-37.950;145.008;2024-01-15T14:54:12;3;3;
54869;PMS5003;40756;-37.950;145.008;2024-01-15T14:56:41;3;3;
54869;PMS5003;40756;-37.950;145.008;2024-01-15T14:59:10;3;3;
54869;PMS5003;40756;-37.950;145.008;2024-01-15T15:01:40;3;3;
54869;PMS5003;40756;-37.950;145.008;2024-01-15T15:04:09;2;2;
54869;PMS5003;40756;-37.950;145.008;2024-01-15T15:06:39;4;4;
54869;PMS5003;40756;-37.950;145.008;2024-01-15T15:09:08;5;5;
54869;PMS5003;40756;-37.950;145.008;2024-01-15T15:11:39;3;3;
54869;PMS5003;40756;-37.950;145.008;2024-01-15T15:14:09;3;3;
54869;PMS5003;40756;-37.950;145.008;2024-01-15T15:16:38;4;3;
54869;PMS5003;40756;-37.950;145.008;2024-01-15T15:19:08;3;3;
54869;PMS5003;40756;-37.950;145.008;2024-01-15T15:21:37;4;4;
54869;PMS5003;40756;-37.950;145.008;2024-01-15T15:24:06;4;4;
54869;PMS5003;40756;-37.950;145.008;2024-01-15T15:26:36;3;3;
54869;PMS5003;40756;-37.950;145.008;2024-01-15T15:29:05;2;2;
54869;PMS5003;40756;-37.950;145.008;2024-01-15T15:31:35;3;3;
54869;PMS5003;40756;-37.950;145.008;2024-01-15T15:34:04;2;2;
54869;PMS5003;40756;-37.950;145.008;2024-01-15T15:36:34;3;3;
54869;PMS5003;40756;-37.950;145.008;2024-01-15T15:39:04;4;3;
54869;PMS5003;40756;-37.950;145.008;2024-01-15T15:41:33;5;3;
54869;PMS5003;40756;-37.950;145.008;2024-01-15T15:44:03;4;4;
54869;PMS5003;40756;-37.950;145.008;2024-01-15T15:46:32;3;3;
54869;PMS5003;40756;-37.950;145.008;2024-01-15T15:49:02;4;4;
54869;PMS5003;40756;-37.950;145.008;2024-01-15T15:51:31;3;3;
54869;PMS5003;40756;-37.950;145.008;2024-01-15T15:54:00;2;2;
54869;PMS5003;40756;-37.950;145.008;2024-01-15T15:56:30;3;3;
54869;PMS5003;40756;-37.950;145.008;2024-01-15T15:58:59;4;4;
54869;PMS5003;40756;-37.950;145.008;2024-01-15T16:03:09;4;4;
54869;PMS5003;40756;-37.950;145.008;2024-01-15T16:05:38;4;4;
54869;PMS5003;40756;-37.950;145.008;2024-01-15T16:08:08;4;4;
54869;PMS5003;40756;-37.950;145.008;2024-01-15T16:10:38;3;3;
54869;PMS5003;40756;-37.950;145.008;2024-01-15T16:13:08;4;4;
54869;PMS5003;40756;-37.950;145.008;2024-01-15T16:15:38;3;3;
54869;PMS5003;40756;-37.950;145.008;2024-01-15T16:18:07;3;3;
54869;PMS5003;40756;-37.950;145.008;2024-01-15T16:20:37;3;3;
54869;PMS5003;40756;-37.950;145.008;2024-01-15T16:23:06;3;3;